Conneaut, OH (44030)

10:07 PM EDT on April 26, 2017 (GMT -0400)
MCBLO1 | | Change Station

Elev 570 ft 41.98 °N, 80.56 °W | Updated 27 minutes ago

Clear
Clear
76.0 °F
Feels Like 76.0 °F
N
10.0
Wind Variable Wind from South
Gusts 13.0 mph

Today
High -- | Low -- °F
--% Chance of Precip.
Yesterday
High -- | Low -- °F
Precip. -- in
Pressure 29.66 in
Visibility 10.0 miles
Clouds Clear
Dew Point Not available.
Humidity Not available.
Rainfall in
Snow Depth Not available.
6:24 AM 8:15 PM
New Moon, 1% visible
METAR KHZY 270153Z AUTO 14007KT 10SM CLR 21/13 A2967 RMK AO2 SLP042 T02110133 TSNO
Pressure 29.66 in
Visibility 10.0 miles
Clouds Clear
Dew Point Not available.
Humidity Not available.
Rainfall in
Snow Depth Not available.
6:24 AM 8:15 PM
New Moon, 1% visible
METAR KHZY 270153Z AUTO 14007KT 10SM CLR 21/13 A2967 RMK AO2 SLP042 T02110133 TSNO

Get Severe Weather Alerts

Thanks for signing up!

Be on the lookout for a verification email in your inbox.

You'll start receiving the daily forecast at 8 AM.

×

10-Day Weather Forecast

Almanac

Astronomy

Apr. 26, 2017 Rise Set
Actual Time
Civil Twilight
Nautical Twilight
Astronomical Twilight
Moon
Length of Visible Light
Length of Day
Tomorrow will be .
, % of the Moon is Illuminated

Today's Extremes

State Highs State Lows

Community

WunderPhotos

WunderBlog® & News

Nearby

Air Quality

  Air Quality AQ Index Pollutant
Not available.

Snow Depth

Station Depth Elevation

Earthquake Activity

City Distance Mag. Time & Date
Minimum magnitude displayed is 2.5.

Coastal Water Temperatures

Place Temperature

Stations

Nearby Weather Stations

Station Location Temp. Windchill Dew Point Humidity Wind Precip. Elev Updated Type
                   

Watches & Warnings

There are currently no watches in effect.